SNOW

Not for real navigation. The accuracy of this data is not assured See disclaimer for more information



ICAO NAME COUNTRY WIND Kt GUST Kt VIS m TEMP/DEW C BARO METAR
KOZW Howell, Livingston County Airp MI United States 12 22 400 0/-1 29.53 KOZW 251255Z AUTO 27012G22KT 0.25SM -SN OVC006 00/M01 A2953 RMK AO2 T00001008
PAII Egegik, Egegik Airport AK United States 4 0 400 -1/-2 30.77 PAII 251256Z AUTO 25004KT 0.25SM -SN FZFG OVC002 M01/M02 A3077 RMK AO2 SLP422 P0000 T10111017 FZRANO
PACZ Cape Romanzof, Cape Romanzof L AK United States 38 44 400 -1/-1 30.22 PACZ 251255Z AUTO 18038G44KT 0.25SM SN FG OVC003 M01/M01 A3022 RMK AO2 PK WND 18044/1230 SNB1156 SLP
BGKK Kulusuk Lufthavn Greenland 5 0 800 -4/-5 28.08 BGKK 251250Z AUTO VRB05KT 0800NDV SN OVC012/// M04/M05 Q0951
KLDM Ludington, Mason County Airpor MI United States 10 22 800 -4/-5 29.57 KLDM 251255Z AUTO 31010G22KT 0.5SM -SN OVC012 M04/M05 A2957 RMK AO2 T10421052

Show more